createdAt,value
2018-09-23T00:02:10.659Z,59.48
2018-09-23T00:04:38.297Z,58.45
2018-09-23T00:07:06.168Z,59.10
2018-09-23T00:09:33.800Z,58.78
2018-09-23T00:12:01.458Z,59.71
2018-09-23T00:14:29.086Z,60.18
2018-09-23T00:16:56.785Z,59.95
2018-09-23T00:19:24.372Z,60.07
2018-09-23T00:21:52.294Z,60.12
2018-09-23T00:24:19.956Z,59.89
2018-09-23T00:26:47.595Z,60.40
2018-09-23T00:29:19.805Z,60.38
2018-09-23T00:31:47.449Z,60.13
2018-09-23T00:34:15.031Z,60.52
2018-09-23T00:36:42.683Z,61.05
2018-09-23T00:39:17.187Z,60.88
2018-09-23T00:41:44.799Z,60.68
2018-09-23T00:44:12.490Z,61.57
2018-09-23T00:46:40.138Z,61.07
2018-09-23T00:49:07.807Z,61.57
2018-09-23T00:51:35.400Z,61.40
2018-09-23T00:54:03.064Z,60.38
2018-09-23T00:56:30.721Z,60.74
2018-09-23T00:58:58.367Z,61.09
2018-09-23T01:01:25.993Z,60.56
2018-09-23T01:03:53.632Z,60.07
2018-09-23T01:06:21.254Z,60.67
2018-09-23T01:08:48.979Z,60.79
2018-09-23T01:11:16.614Z,60.24
2018-09-23T01:13:44.248Z,59.84
2018-09-23T01:16:12.031Z,60.16
2018-09-23T01:18:39.641Z,60.62
2018-09-23T01:21:07.483Z,60.63
2018-09-23T01:23:35.083Z,60.39
2018-09-23T01:26:02.726Z,60.40
2018-09-23T01:28:30.343Z,60.21
2018-09-23T01:30:57.993Z,60.88
2018-09-23T01:33:25.626Z,60.12
2018-09-23T01:35:53.232Z,60.35
2018-09-23T01:38:20.810Z,61.24
2018-09-23T01:40:48.425Z,60.49
2018-09-23T01:43:16.089Z,60.25
2018-09-23T01:45:43.777Z,61.01
2018-09-23T01:48:11.435Z,60.29
2018-09-23T01:50:39.077Z,60.31
2018-09-23T01:53:06.701Z,60.85
2018-09-23T01:55:34.361Z,60.32
2018-09-23T01:58:02.051Z,59.82
2018-09-23T02:00:29.747Z,59.53
2018-09-23T02:02:57.381Z,60.31
2018-09-23T02:05:25.011Z,60.30
2018-09-23T02:07:52.659Z,60.27
2018-09-23T02:10:20.353Z,60.28
2018-09-23T02:12:47.990Z,60.28
2018-09-23T02:15:15.570Z,59.98
2018-09-23T02:17:43.318Z,59.99
2018-09-23T02:20:11.005Z,60.12
2018-09-23T02:22:38.574Z,60.00
2018-09-23T02:25:06.261Z,60.33
2018-09-23T02:27:33.841Z,60.46
2018-09-23T02:30:01.533Z,59.76
2018-09-23T02:32:29.187Z,60.04
2018-09-23T02:34:56.850Z,60.53
2018-09-23T02:37:24.524Z,60.60
2018-09-23T02:39:52.226Z,60.72
2018-09-23T02:42:19.886Z,61.11
2018-09-23T02:44:47.692Z,60.87
2018-09-23T02:47:15.366Z,61.18
2018-09-23T02:49:43.006Z,61.11
2018-09-23T02:52:10.601Z,60.19
2018-09-23T02:54:38.243Z,60.08
2018-09-23T02:57:05.985Z,59.91
2018-09-23T02:59:33.549Z,59.84
2018-09-23T03:02:01.184Z,60.20
2018-09-23T03:04:28.789Z,60.54
2018-09-23T03:06:56.555Z,60.36
2018-09-23T03:09:24.219Z,60.50
2018-09-23T03:11:51.931Z,61.16
2018-09-23T03:14:19.730Z,61.44
2018-09-23T03:16:47.550Z,61.37
2018-09-23T03:19:15.149Z,61.13
2018-09-23T03:21:42.903Z,60.96
2018-09-23T03:24:10.551Z,61.23
2018-09-23T03:26:38.457Z,60.93
2018-09-23T03:29:06.062Z,60.30
2018-09-23T03:31:33.673Z,60.16
2018-09-23T03:34:01.270Z,60.45
2018-09-23T03:36:28.900Z,60.33
2018-09-23T03:38:56.499Z,59.99
2018-09-23T03:41:24.222Z,60.52
2018-09-23T03:43:51.906Z,60.96
2018-09-23T03:46:19.550Z,61.22
2018-09-23T03:48:47.211Z,61.24
2018-09-23T03:51:14.872Z,61.26
2018-09-23T03:53:42.482Z,61.20
2018-09-23T03:56:10.082Z,60.72
2018-09-23T03:58:37.709Z,60.69
2018-09-23T04:01:05.383Z,60.81
2018-09-23T04:03:32.998Z,61.24
2018-09-23T04:06:00.608Z,60.58
2018-09-23T04:08:28.171Z,60.03
2018-09-23T04:10:55.786Z,60.23
2018-09-23T04:13:23.474Z,60.34
2018-09-23T04:15:51.094Z,60.01
2018-09-23T04:18:18.714Z,59.51
2018-09-23T04:20:46.395Z,59.51
2018-09-23T04:23:14.055Z,59.79
2018-09-23T04:25:41.621Z,59.37
2018-09-23T04:28:09.265Z,59.49
2018-09-23T04:30:36.881Z,59.47
2018-09-23T04:35:39.054Z,59.17
2018-09-23T04:38:06.732Z,58.82
2018-09-23T04:40:34.322Z,59.08
2018-09-23T04:43:01.992Z,59.19
2018-09-23T04:45:29.588Z,59.77
2018-09-23T04:47:57.235Z,59.43
2018-09-23T04:50:24.840Z,59.01
2018-09-23T04:52:52.477Z,59.39
2018-09-23T04:55:20.166Z,59.55
2018-09-23T04:57:47.797Z,59.50
2018-09-23T05:00:15.418Z,59.16
2018-09-23T05:02:43.081Z,59.43
2018-09-23T05:05:10.671Z,58.65
2018-09-23T05:07:38.300Z,58.82
2018-09-23T05:10:05.998Z,59.11
2018-09-23T05:12:33.718Z,58.80
2018-09-23T05:15:01.343Z,58.32
2018-09-23T05:17:28.895Z,58.17
2018-09-23T05:19:56.536Z,58.38
2018-09-23T05:22:24.265Z,58.11
2018-09-23T05:24:51.947Z,58.02
2018-09-23T05:27:19.605Z,58.38
2018-09-23T05:29:47.448Z,57.72
2018-09-23T05:32:15.128Z,57.97
2018-09-23T05:34:42.780Z,57.46
2018-09-23T05:37:10.346Z,57.07
2018-09-23T05:39:37.965Z,56.66
2018-09-23T05:42:05.840Z,56.35
2018-09-23T05:44:33.424Z,56.15
2018-09-23T05:47:00.996Z,56.10
2018-09-23T05:49:28.598Z,56.52
2018-09-23T05:51:56.224Z,56.47
2018-09-23T05:54:23.955Z,56.11
2018-09-23T05:56:51.602Z,55.37
2018-09-23T05:59:19.359Z,55.87
2018-09-23T06:01:47.009Z,55.73
2018-09-23T06:04:14.672Z,55.49
2018-09-23T06:06:42.323Z,55.92
2018-09-23T06:09:09.996Z,55.38
2018-09-23T06:11:37.697Z,55.16
2018-09-23T06:14:05.497Z,54.39
2018-09-23T06:16:33.132Z,55.01
2018-09-23T06:19:00.852Z,55.06
2018-09-23T06:21:28.525Z,54.81
2018-09-23T06:23:56.193Z,54.17
2018-09-23T06:26:23.843Z,54.03
2018-09-23T06:28:51.513Z,53.90
2018-09-23T06:31:19.277Z,53.25
2018-09-23T06:33:47.033Z,53.30
2018-09-23T06:36:14.653Z,54.20
2018-09-23T06:38:42.412Z,52.91
2018-09-23T06:41:10.080Z,52.02
2018-09-23T06:44:13.966Z,52.82
2018-09-23T06:46:41.626Z,53.75
2018-09-23T06:49:09.342Z,53.20
2018-09-23T06:51:36.882Z,52.15
2018-09-23T06:54:04.518Z,51.75
2018-09-23T06:56:32.128Z,51.75
2018-09-23T06:58:59.814Z,52.67
2018-09-23T07:01:27.413Z,52.40
2018-09-23T07:03:55.179Z,51.58
2018-09-23T07:06:22.821Z,51.50
2018-09-23T07:08:50.446Z,51.77
2018-09-23T07:11:18.127Z,52.06
2018-09-23T07:13:45.857Z,51.79
2018-09-23T07:16:13.560Z,51.66
2018-09-23T07:18:41.287Z,51.34
2018-09-23T07:21:08.915Z,52.34
2018-09-23T07:23:36.518Z,52.64
2018-09-23T07:26:04.153Z,52.23
2018-09-23T07:28:31.746Z,51.79
2018-09-23T07:30:59.433Z,51.03
2018-09-23T07:33:27.215Z,51.54
2018-09-23T07:35:54.824Z,51.28
2018-09-23T07:38:22.484Z,50.77
2018-09-23T07:40:50.151Z,50.78
2018-09-23T07:43:17.916Z,50.22
2018-09-23T07:45:45.633Z,49.94
2018-09-23T07:48:13.313Z,49.46
2018-09-23T07:50:41.006Z,49.54
2018-09-23T07:53:08.627Z,49.36
2018-09-23T07:55:36.319Z,50.71
2018-09-23T07:58:03.974Z,51.34
2018-09-23T08:00:31.670Z,52.46
2018-09-23T08:02:59.344Z,51.33
2018-09-23T08:05:27.069Z,49.85
2018-09-23T08:07:54.760Z,50.73
2018-09-23T08:10:23.116Z,49.79
2018-09-23T08:12:50.982Z,48.94
2018-09-23T08:15:18.503Z,49.34
2018-09-23T08:17:46.154Z,49.24
2018-09-23T08:20:14.032Z,49.24
2018-09-23T08:22:41.565Z,49.49
2018-09-23T08:25:09.243Z,49.08
2018-09-23T08:27:36.867Z,49.46
2018-09-23T08:30:05.004Z,50.66
2018-09-23T08:32:32.662Z,51.43
2018-09-23T08:35:00.238Z,50.90
2018-09-23T08:37:27.945Z,51.80
2018-09-23T08:39:55.601Z,51.31
2018-09-23T08:42:23.246Z,49.74
2018-09-23T08:44:50.895Z,48.96
2018-09-23T08:47:18.553Z,48.63
2018-09-23T08:49:46.187Z,47.20
2018-09-23T08:52:13.930Z,48.01
2018-09-23T08:54:41.654Z,48.46
2018-09-23T08:57:09.499Z,48.05
2018-09-23T08:59:37.201Z,46.69
2018-09-23T09:02:05.264Z,47.98
2018-09-23T09:04:32.925Z,47.35
2018-09-23T09:07:00.709Z,46.89
2018-09-23T09:09:28.385Z,48.05
2018-09-23T09:11:56.103Z,48.92
2018-09-23T09:14:23.850Z,49.39
2018-09-23T09:16:51.587Z,47.86
2018-09-23T09:19:19.313Z,49.15
2018-09-23T09:21:47.041Z,50.47
2018-09-23T09:24:14.837Z,50.65
2018-09-23T09:26:42.622Z,50.97
2018-09-23T09:29:10.335Z,50.52
2018-09-23T09:31:38.035Z,51.07
2018-09-23T09:34:05.833Z,49.73
2018-09-23T09:36:33.432Z,48.88
2018-09-23T09:39:01.154Z,48.99
2018-09-23T09:41:28.874Z,47.78
2018-09-23T09:43:56.650Z,46.77
2018-09-23T09:46:24.292Z,47.09
2018-09-23T09:48:51.930Z,45.89
2018-09-23T09:51:19.622Z,45.68
2018-09-23T09:53:47.359Z,45.74
2018-09-23T09:56:15.056Z,45.34
2018-09-23T09:58:42.838Z,45.94
2018-09-23T10:01:10.542Z,46.07
2018-09-23T10:03:38.272Z,46.81
2018-09-23T10:06:05.966Z,47.46
2018-09-23T10:08:33.638Z,49.35
2018-09-23T10:11:01.525Z,48.47
2018-09-23T10:13:29.294Z,47.99
2018-09-23T10:15:56.987Z,48.10
2018-09-23T10:18:24.643Z,50.30
2018-09-23T10:20:52.347Z,49.59
2018-09-23T10:23:20.205Z,49.37
2018-09-23T10:25:47.909Z,49.42
2018-09-23T10:28:15.609Z,49.33
2018-09-23T10:30:43.281Z,49.22
2018-09-23T10:33:11.077Z,48.20
2018-09-23T10:35:38.831Z,49.33
2018-09-23T10:38:06.545Z,48.99
2018-09-23T10:40:34.157Z,47.16
2018-09-23T10:43:01.871Z,45.95
2018-09-23T10:45:29.591Z,46.11
2018-09-23T10:47:57.201Z,45.69
2018-09-23T10:50:24.878Z,46.28
2018-09-23T10:52:59.480Z,47.56
2018-09-23T10:55:27.181Z,47.63
2018-09-23T10:57:54.833Z,48.16
2018-09-23T11:00:22.604Z,49.53
2018-09-23T11:02:50.309Z,50.61
2018-09-23T11:05:17.981Z,51.02
2018-09-23T11:07:45.710Z,52.07
2018-09-23T11:10:13.424Z,53.36
2018-09-23T11:12:41.147Z,54.28
2018-09-23T11:15:09.011Z,54.53
2018-09-23T11:17:36.655Z,54.52
2018-09-23T11:20:04.521Z,53.25
2018-09-23T11:22:32.270Z,54.26
2018-09-23T11:25:00.050Z,55.46
2018-09-23T11:27:27.682Z,54.45
2018-09-23T11:29:55.398Z,55.38
2018-09-23T11:32:23.033Z,54.26
2018-09-23T11:34:50.738Z,54.29
2018-09-23T11:37:18.358Z,55.01
2018-09-23T11:39:46.002Z,56.02
2018-09-23T11:42:13.701Z,56.76
2018-09-23T11:44:41.378Z,59.21
2018-09-23T11:47:09.210Z,57.91
2018-09-23T11:49:36.934Z,58.72
2018-09-23T11:52:04.698Z,58.39
2018-09-23T11:54:32.555Z,57.22
2018-09-23T11:57:00.216Z,56.63
2018-09-23T11:59:27.902Z,55.44
2018-09-23T12:01:57.288Z,56.32
2018-09-23T12:04:25.033Z,57.07
2018-09-23T12:06:52.696Z,56.96
2018-09-23T12:09:20.340Z,57.05
2018-09-23T12:11:48.026Z,58.53
2018-09-23T12:14:15.608Z,58.44
2018-09-23T12:16:43.322Z,58.17
2018-09-23T12:19:10.921Z,58.49
2018-09-23T12:21:38.597Z,58.43
2018-09-23T12:24:06.341Z,58.21
2018-09-23T12:26:34.176Z,57.98
2018-09-23T12:29:01.848Z,58.30
2018-09-23T12:31:29.708Z,57.87
2018-09-23T12:33:57.414Z,58.27
2018-09-23T12:36:25.041Z,58.30
2018-09-23T12:38:52.764Z,57.52
2018-09-23T12:41:20.519Z,57.68
2018-09-23T12:43:48.265Z,58.50
2018-09-23T12:46:15.870Z,58.53
2018-09-23T12:48:43.587Z,58.68
2018-09-23T12:51:11.215Z,58.52
2018-09-23T12:53:38.850Z,59.79
2018-09-23T12:56:06.582Z,59.56
2018-09-23T12:58:34.255Z,59.18
2018-09-23T13:01:01.966Z,58.18
2018-09-23T13:03:29.766Z,59.04
2018-09-23T13:05:58.002Z,58.66
2018-09-23T13:08:26.311Z,59.09
2018-09-23T13:10:53.930Z,58.68
2018-09-23T13:13:21.749Z,58.11
2018-09-23T13:15:49.396Z,58.25
2018-09-23T13:18:17.064Z,58.95
2018-09-23T13:20:44.727Z,59.57
2018-09-23T13:23:12.347Z,59.88
2018-09-23T13:25:40.010Z,60.88
2018-09-23T13:28:07.696Z,60.04
2018-09-23T13:30:35.386Z,60.72
2018-09-23T13:33:03.120Z,60.96
2018-09-23T13:35:30.830Z,61.39
2018-09-23T13:37:58.498Z,62.03
2018-09-23T13:40:26.209Z,61.77
2018-09-23T13:42:53.919Z,63.53
2018-09-23T13:45:21.654Z,63.21
2018-09-23T13:47:49.300Z,63.89
2018-09-23T13:50:17.038Z,63.56
2018-09-23T13:52:44.708Z,65.34
2018-09-23T13:55:12.335Z,65.30
2018-09-23T13:57:39.992Z,64.45
2018-09-23T14:00:07.709Z,65.77
2018-09-23T14:02:35.411Z,66.48
2018-09-23T14:05:03.114Z,65.76
2018-09-23T14:07:30.835Z,65.99
2018-09-23T14:09:58.567Z,66.88
2018-09-23T14:12:26.251Z,66.42
2018-09-23T14:14:53.893Z,67.51
2018-09-23T14:17:21.544Z,68.00
2018-09-23T14:19:49.255Z,68.40
2018-09-23T14:22:16.846Z,69.20
2018-09-23T14:24:44.888Z,69.43
2018-09-23T14:27:12.514Z,69.52
2018-09-23T14:29:40.180Z,69.01
2018-09-23T14:32:07.938Z,68.63
2018-09-23T14:34:35.610Z,69.54
2018-09-23T14:37:03.354Z,69.95
2018-09-23T14:39:31.165Z,70.03
2018-09-23T14:41:58.890Z,70.58
2018-09-23T14:44:26.923Z,69.19
2018-09-23T14:46:54.506Z,69.63
2018-09-23T14:49:22.300Z,69.97
2018-09-23T14:51:50.026Z,70.05
2018-09-23T14:54:17.913Z,70.26
2018-09-23T14:56:46.029Z,69.86
2018-09-23T14:59:13.891Z,70.25
2018-09-23T15:01:41.588Z,69.89
2018-09-23T15:04:09.240Z,70.33
2018-09-23T15:06:36.916Z,69.86
2018-09-23T15:09:07.751Z,69.47
2018-09-23T15:11:35.485Z,68.83
2018-09-23T15:14:03.369Z,69.81
2018-09-23T15:16:31.033Z,70.86
2018-09-23T15:18:58.779Z,70.79
2018-09-23T15:21:26.465Z,71.88
2018-09-23T15:23:54.112Z,72.06
2018-09-23T15:26:21.856Z,72.12
2018-09-23T15:28:49.559Z,73.34
2018-09-23T15:31:17.244Z,74.27
2018-09-23T15:33:44.951Z,73.90
2018-09-23T15:36:12.641Z,73.48
2018-09-23T15:38:40.403Z,74.34
2018-09-23T15:41:08.549Z,73.91
2018-09-23T15:43:36.609Z,74.51
2018-09-23T15:46:04.301Z,74.69
2018-09-23T15:48:32.023Z,75.28
2018-09-23T15:50:59.645Z,76.30
2018-09-23T15:53:27.284Z,76.27
2018-09-23T15:55:54.955Z,76.44
2018-09-23T15:58:22.804Z,76.80
2018-09-23T16:00:50.690Z,75.13
2018-09-23T16:03:18.427Z,75.27
2018-09-23T16:05:46.102Z,75.45
2018-09-23T16:08:13.759Z,79.67
2018-09-23T16:10:41.508Z,84.61
2018-09-23T16:13:09.240Z,86.01
2018-09-23T16:15:37.879Z,85.44
2018-09-23T16:18:05.718Z,83.88
2018-09-23T16:20:33.533Z,83.58
2018-09-23T16:23:01.200Z,81.78
2018-09-23T16:25:28.858Z,83.32
2018-09-23T16:27:56.542Z,83.34
2018-09-23T16:30:24.200Z,82.91
2018-09-23T16:32:51.873Z,83.80
2018-09-23T16:35:19.590Z,84.16
2018-09-23T16:37:47.308Z,85.07
2018-09-23T16:40:15.442Z,83.48
2018-09-23T16:42:43.569Z,82.63
2018-09-23T16:45:11.288Z,82.46
2018-09-23T16:47:39.351Z,82.29
2018-09-23T16:50:07.229Z,82.08
2018-09-23T16:52:35.188Z,82.07
2018-09-23T16:55:02.920Z,82.67
2018-09-23T16:57:30.645Z,81.75
2018-09-23T16:59:58.390Z,81.00
2018-09-23T17:02:26.363Z,80.09
2018-09-23T17:04:54.190Z,80.82
2018-09-23T17:07:21.987Z,80.29
2018-09-23T17:09:49.646Z,80.63
2018-09-23T17:12:17.360Z,81.08
2018-09-23T17:14:45.061Z,80.36
2018-09-23T17:17:13.171Z,80.75
2018-09-23T17:19:40.893Z,80.74
2018-09-23T17:22:09.361Z,80.62
2018-09-23T17:24:37.719Z,80.45
2018-09-23T17:27:05.839Z,81.53
2018-09-23T17:29:33.566Z,82.05
2018-09-23T17:32:01.288Z,81.86
2018-09-23T17:34:29.492Z,81.03
2018-09-23T17:36:57.259Z,81.11
2018-09-23T17:39:25.420Z,79.94
2018-09-23T17:41:53.112Z,80.71
2018-09-23T17:44:20.884Z,79.89
2018-09-23T17:46:48.540Z,79.37
2018-09-23T17:49:16.194Z,79.27
2018-09-23T17:51:43.895Z,78.79
2018-09-23T17:54:11.589Z,78.90
2018-09-23T17:56:39.451Z,80.22
2018-09-23T17:59:07.570Z,79.47
2018-09-23T18:01:35.364Z,80.74
2018-09-23T18:04:03.365Z,83.43
2018-09-23T18:06:31.218Z,84.83
2018-09-23T18:08:59.050Z,85.11
2018-09-23T18:11:26.999Z,84.81
2018-09-23T18:13:54.894Z,83.37
2018-09-23T18:16:22.847Z,84.32
2018-09-23T18:18:51.664Z,86.11
2018-09-23T18:21:19.898Z,87.69
2018-09-23T18:23:47.694Z,87.77
2018-09-23T18:26:16.193Z,89.35
2018-09-23T18:28:44.297Z,88.76
2018-09-23T18:31:12.903Z,87.21
2018-09-23T18:33:40.641Z,87.72
2018-09-23T18:36:09.569Z,87.59
2018-09-23T18:38:37.465Z,87.10
2018-09-23T18:41:06.093Z,87.93
2018-09-23T18:43:34.360Z,87.95
2018-09-23T18:46:03.120Z,88.30
2018-09-23T18:48:32.434Z,86.55
2018-09-23T18:51:00.725Z,87.02
2018-09-23T18:53:29.836Z,86.63
2018-09-23T18:55:57.722Z,86.62
2018-09-23T18:58:25.793Z,87.51
2018-09-23T19:00:54.103Z,86.69
2018-09-23T19:03:23.330Z,87.12
2018-09-23T19:05:51.112Z,87.16
2018-09-23T19:08:19.056Z,87.28
2018-09-23T19:10:46.824Z,87.41
2018-09-23T19:13:21.069Z,87.86
2018-09-23T19:15:55.821Z,87.48
2018-09-23T19:18:23.689Z,88.62
2018-09-23T19:20:51.554Z,87.87
2018-09-23T19:23:20.140Z,87.45
2018-09-23T19:25:48.908Z,88.64
2018-09-23T19:28:17.490Z,87.83
2018-09-23T19:30:46.300Z,87.91
2018-09-23T19:33:14.918Z,88.72
2018-09-23T19:35:42.661Z,89.03
2018-09-23T19:38:10.548Z,88.28
2018-09-23T19:40:39.017Z,88.10
2018-09-23T19:43:07.781Z,87.46
2018-09-23T19:45:36.570Z,86.38
2018-09-23T19:48:05.014Z,86.76
2018-09-23T19:50:34.480Z,86.47
2018-09-23T19:53:02.445Z,86.04
2018-09-23T19:55:30.281Z,84.54
2018-09-23T19:57:58.578Z,84.49
2018-09-23T20:00:26.918Z,85.61
2018-09-23T20:02:54.695Z,85.00
2018-09-23T20:05:22.724Z,84.79
2018-09-23T20:07:50.679Z,86.32
2018-09-23T20:10:18.889Z,85.75
2018-09-23T20:12:47.533Z,85.80
2018-09-23T20:15:17.936Z,85.07
2018-09-23T20:17:46.388Z,85.42
2018-09-23T20:20:14.159Z,85.94
2018-09-23T20:22:41.993Z,83.61
2018-09-23T20:25:10.187Z,84.14
2018-09-23T20:27:38.061Z,83.35
2018-09-23T20:30:06.557Z,83.35
2018-09-23T20:32:34.325Z,83.75
2018-09-23T20:35:03.310Z,83.55
2018-09-23T20:37:31.013Z,83.52
2018-09-23T20:39:58.987Z,82.60
2018-09-23T20:42:26.777Z,83.02
2018-09-23T20:44:54.513Z,82.33
2018-09-23T20:47:22.175Z,82.51
2018-09-23T20:49:49.846Z,84.01
2018-09-23T20:52:17.555Z,83.93
2018-09-23T20:54:45.238Z,84.31
2018-09-23T20:57:12.978Z,84.90
2018-09-23T20:59:40.709Z,84.30
2018-09-23T21:02:08.491Z,83.11
2018-09-23T21:04:36.159Z,84.25
2018-09-23T21:07:03.898Z,84.32
2018-09-23T21:09:31.643Z,84.63
2018-09-23T21:11:59.298Z,85.66
2018-09-23T21:14:27.055Z,85.77
2018-09-23T21:16:54.618Z,85.66
2018-09-23T21:19:22.278Z,85.78
2018-09-23T21:21:49.876Z,84.97
2018-09-23T21:24:17.660Z,84.72
2018-09-23T21:26:45.281Z,85.17
2018-09-23T21:29:12.942Z,85.41
2018-09-23T21:31:40.604Z,84.88
2018-09-23T21:34:08.583Z,85.02
2018-09-23T21:36:36.257Z,85.02
2018-09-23T21:39:05.846Z,83.86
2018-09-23T21:41:33.474Z,84.51
2018-09-23T21:44:01.175Z,85.07
2018-09-23T21:46:28.875Z,85.66
2018-09-23T21:48:56.564Z,85.35
2018-09-23T21:51:24.254Z,84.65
2018-09-23T21:53:51.924Z,86.08
2018-09-23T21:56:19.581Z,85.62
2018-09-23T21:58:47.266Z,84.66
2018-09-23T22:01:15.060Z,84.79
2018-09-23T22:03:42.620Z,84.64
2018-09-23T22:06:10.325Z,83.90
2018-09-23T22:08:37.879Z,84.10
2018-09-23T22:11:05.742Z,83.81
2018-09-23T22:13:33.334Z,82.93
2018-09-23T22:16:00.894Z,83.75
2018-09-23T22:18:28.550Z,82.76
2018-09-23T22:20:56.341Z,82.85
2018-09-23T22:23:23.953Z,82.94
2018-09-23T22:25:51.641Z,84.12
2018-09-23T22:28:19.277Z,84.11
2018-09-23T22:30:46.983Z,84.61
2018-09-23T22:33:14.689Z,84.32
2018-09-23T22:35:42.366Z,83.87
2018-09-23T22:38:10.064Z,83.02
2018-09-23T22:40:37.974Z,82.98
2018-09-23T22:43:06.353Z,83.45
2018-09-23T22:45:34.038Z,83.15
2018-09-23T22:48:01.784Z,82.62
2018-09-23T22:50:29.407Z,82.31
2018-09-23T22:52:57.018Z,84.24
2018-09-23T22:55:24.718Z,84.19
2018-09-23T22:57:52.400Z,82.47
2018-09-23T23:00:20.668Z,82.32
2018-09-23T23:02:48.404Z,81.92
2018-09-23T23:05:16.075Z,82.10
2018-09-23T23:07:43.742Z,81.41
2018-09-23T23:10:11.432Z,81.33
2018-09-23T23:12:39.126Z,82.02
2018-09-23T23:15:06.808Z,82.44
2018-09-23T23:17:34.483Z,82.87
2018-09-23T23:20:02.146Z,82.16
2018-09-23T23:22:29.866Z,82.63
2018-09-23T23:24:57.578Z,83.34
2018-09-23T23:27:25.306Z,82.77
2018-09-23T23:29:52.930Z,82.40
2018-09-23T23:32:20.596Z,82.49
2018-09-23T23:34:48.227Z,82.24
2018-09-23T23:37:15.925Z,83.03
2018-09-23T23:39:43.681Z,82.12
2018-09-23T23:42:11.319Z,81.96
2018-09-23T23:44:39.008Z,82.57
2018-09-23T23:47:06.882Z,82.66
2018-09-23T23:49:34.502Z,82.57
2018-09-23T23:52:02.115Z,82.22
2018-09-23T23:54:29.730Z,81.87
2018-09-23T23:56:57.371Z,82.01
2018-09-23T23:59:25.033Z,81.14
